createdAt,value
2022-11-29T00:00:30.615Z,20.23
2022-11-29T00:03:32.845Z,19.88
2022-11-29T00:06:35.274Z,19.17
2022-11-29T00:09:36.635Z,20.63
2022-11-29T00:12:38.121Z,18.98
2022-11-29T00:15:39.846Z,18.50
2022-11-29T00:18:41.183Z,18.92
2022-11-29T00:21:42.537Z,19.52
2022-11-29T00:24:44.276Z,18.85
2022-11-29T00:27:46.327Z,19.13
2022-11-29T00:30:47.738Z,20.60
2022-11-29T00:33:50.172Z,20.77
2022-11-29T00:36:51.673Z,19.60
2022-11-29T00:39:53.049Z,20.05
2022-11-29T00:42:54.377Z,19.70
2022-11-29T00:45:55.743Z,20.33
2022-11-29T00:48:57.076Z,19.17
2022-11-29T00:51:58.429Z,20.50
2022-11-29T00:54:59.753Z,22.10
2022-11-29T00:58:01.133Z,21.40
2022-11-29T01:01:02.960Z,21.15
2022-11-29T01:04:04.517Z,20.95
2022-11-29T01:07:05.878Z,20.48
2022-11-29T01:10:07.898Z,21.05
2022-11-29T01:13:10.096Z,21.85
2022-11-29T01:16:11.939Z,21.38
2022-11-29T01:19:13.250Z,23.42
2022-11-29T01:22:14.673Z,23.45
2022-11-29T01:25:16.298Z,22.83
2022-11-29T01:28:17.778Z,24.13
2022-11-29T01:31:39.350Z,23.17
2022-11-29T01:34:40.750Z,23.83
2022-11-29T01:37:42.170Z,24.17
2022-11-29T01:40:43.939Z,24.48
2022-11-29T01:44:12.832Z,24.95
2022-11-29T01:47:14.192Z,24.60
2022-11-29T01:50:15.683Z,26.60
2022-11-29T01:53:17.338Z,24.27
2022-11-29T01:56:18.777Z,27.75
2022-11-29T01:59:26.876Z,26.65
2022-11-29T02:02:32.474Z,26.80
2022-11-29T02:05:34.040Z,26.67
2022-11-29T02:08:41.211Z,27.35
2022-11-29T02:11:52.054Z,27.77
2022-11-29T02:15:28.947Z,29.40
2022-11-29T02:18:59.980Z,29.77
2022-11-29T02:22:29.549Z,27.52
2022-11-29T02:25:39.576Z,28.55
2022-11-29T02:28:49.797Z,27.25
2022-11-29T02:32:15.462Z,27.95
2022-11-29T02:35:25.921Z,28.77
2022-11-29T02:38:47.412Z,28.85
2022-11-29T02:42:16.626Z,28.35
2022-11-29T02:45:43.090Z,27.45
2022-11-29T02:49:18.882Z,28.25
2022-11-29T02:52:38.850Z,28.20
2022-11-29T02:56:10.782Z,29.40
2022-11-29T02:59:34.302Z,28.48
2022-11-29T03:03:03.614Z,29.42
2022-11-29T03:06:30.498Z,29.73
2022-11-29T03:09:55.107Z,31.70
2022-11-29T03:12:57.816Z,29.02
2022-11-29T03:16:29.039Z,30.03
2022-11-29T03:19:45.812Z,31.70
2022-11-29T03:23:02.076Z,30.05
2022-11-29T03:26:11.077Z,32.40
2022-11-29T03:29:26.865Z,31.48
2022-11-29T03:32:49.238Z,32.25
2022-11-29T03:36:14.342Z,31.38
2022-11-29T03:39:27.560Z,32.47
2022-11-29T03:43:00.211Z,31.77
2022-11-29T03:46:29.150Z,30.42
2022-11-29T03:49:46.241Z,33.83
2022-11-29T03:52:52.052Z,31.73
2022-11-29T03:56:02.073Z,32.35
2022-11-29T03:59:22.101Z,33.45
2022-11-29T04:03:08.436Z,33.45
2022-11-29T04:06:23.017Z,35.38
2022-11-29T04:09:36.280Z,34.15
2022-11-29T04:13:02.949Z,33.28
2022-11-29T04:16:22.887Z,33.33
2022-11-29T04:19:42.090Z,32.63
2022-11-29T04:23:09.630Z,33.67
2022-11-29T04:26:42.749Z,33.30
2022-11-29T04:29:50.251Z,33.93
2022-11-29T04:33:16.720Z,34.28
2022-11-29T04:36:33.308Z,33.30
2022-11-29T04:40:09.042Z,33.10
2022-11-29T04:43:34.634Z,33.95
2022-11-29T04:46:50.926Z,34.03
2022-11-29T04:50:02.830Z,32.83
2022-11-29T04:53:29.994Z,34.65
2022-11-29T04:56:45.394Z,34.42
2022-11-29T04:59:52.412Z,33.78
2022-11-29T05:03:07.482Z,33.80
2022-11-29T05:06:29.155Z,31.35
2022-11-29T05:10:09.008Z,33.00
2022-11-29T05:13:39.875Z,33.83
2022-11-29T05:17:12.264Z,33.60
2022-11-29T05:20:35.119Z,34.72
2022-11-29T05:23:55.069Z,30.80
2022-11-29T05:27:21.387Z,33.47
2022-11-29T05:30:25.434Z,33.95
2022-11-29T05:33:44.829Z,34.88
2022-11-29T05:37:23.734Z,32.28
2022-11-29T05:40:45.200Z,34.60
2022-11-29T05:44:11.309Z,36.00
2022-11-29T05:47:21.772Z,36.50
2022-11-29T05:50:33.137Z,33.95
2022-11-29T05:53:50.732Z,35.28
2022-11-29T05:57:10.061Z,36.88
2022-11-29T06:00:13.209Z,33.63
2022-11-29T06:03:23.004Z,34.75
2022-11-29T06:06:35.084Z,34.60
2022-11-29T06:10:08.805Z,34.95
2022-11-29T06:13:34.657Z,35.53
2022-11-29T06:17:23.148Z,35.13
2022-11-29T06:20:39.742Z,36.05
2022-11-29T06:24:05.642Z,32.63
2022-11-29T06:27:16.090Z,37.15
2022-11-29T06:30:22.720Z,34.10
2022-11-29T06:33:30.946Z,32.40
2022-11-29T06:36:42.138Z,34.85
2022-11-29T06:39:43.842Z,35.03
2022-11-29T06:42:45.171Z,33.22
2022-11-29T06:45:57.400Z,35.17
2022-11-29T06:49:17.367Z,35.45
2022-11-29T06:52:41.031Z,35.33
2022-11-29T06:55:52.707Z,35.15
2022-11-29T06:59:09.059Z,34.88
2022-11-29T07:02:45.761Z,34.92
2022-11-29T07:05:47.436Z,34.58
2022-11-29T07:08:56.776Z,35.63
2022-11-29T07:11:58.424Z,35.60
2022-11-29T07:15:00.065Z,36.65
2022-11-29T07:18:21.356Z,36.83
2022-11-29T07:21:33.286Z,33.53
2022-11-29T07:24:50.861Z,36.50
2022-11-29T07:28:50.993Z,35.45
2022-11-29T07:31:58.109Z,37.53
2022-11-29T07:35:50.201Z,37.17
2022-11-29T07:39:22.541Z,35.08
2022-11-29T07:42:39.230Z,35.95
2022-11-29T07:45:40.706Z,36.22
2022-11-29T07:48:42.111Z,36.50
2022-11-29T07:51:43.493Z,38.45
2022-11-29T07:54:45.101Z,37.88
2022-11-29T07:57:48.110Z,38.08
2022-11-29T08:00:49.582Z,38.65
2022-11-29T08:03:50.982Z,35.67
2022-11-29T08:06:52.312Z,36.92
2022-11-29T08:09:53.742Z,38.33
2022-11-29T08:12:55.106Z,38.88
2022-11-29T08:15:56.522Z,38.70
2022-11-29T08:18:58.019Z,37.15
2022-11-29T08:21:59.467Z,37.28
2022-11-29T08:25:00.849Z,37.28
2022-11-29T08:28:03.480Z,37.28
2022-11-29T08:31:07.368Z,36.13
2022-11-29T08:34:09.107Z,39.53
2022-11-29T08:37:10.597Z,39.67
2022-11-29T08:40:12.916Z,38.03
2022-11-29T08:43:14.292Z,37.47
2022-11-29T08:46:18.779Z,36.15
2022-11-29T08:49:20.549Z,37.15
2022-11-29T08:52:21.938Z,37.85
2022-11-29T08:55:25.741Z,36.75
2022-11-29T08:58:27.123Z,36.08
2022-11-29T09:01:28.491Z,38.10
2022-11-29T09:04:29.881Z,36.55
2022-11-29T09:07:31.362Z,39.83
2022-11-29T09:10:32.735Z,37.05
2022-11-29T09:13:34.110Z,37.22
2022-11-29T09:16:37.668Z,36.88
2022-11-29T09:19:39.042Z,35.20
2022-11-29T09:22:43.132Z,37.65
2022-11-29T09:25:48.607Z,37.67
2022-11-29T09:28:50.052Z,36.90
2022-11-29T09:31:51.475Z,38.58
2022-11-29T09:34:52.853Z,37.03
2022-11-29T09:37:54.240Z,38.20
2022-11-29T09:40:59.664Z,38.28
2022-11-29T09:44:12.244Z,38.65
2022-11-29T09:47:51.345Z,36.28
2022-11-29T09:51:17.840Z,40.03
2022-11-29T09:54:27.965Z,36.90
2022-11-29T09:57:31.213Z,39.70
2022-11-29T10:00:37.939Z,39.55
2022-11-29T10:03:48.676Z,38.47
2022-11-29T10:07:06.492Z,39.65
2022-11-29T10:10:13.309Z,39.78
2022-11-29T10:13:44.957Z,39.28
2022-11-29T10:16:52.321Z,37.58
2022-11-29T10:20:10.649Z,38.10
2022-11-29T10:23:33.653Z,38.80
2022-11-29T10:26:35.600Z,39.20
2022-11-29T10:29:38.230Z,39.17
2022-11-29T10:32:39.973Z,39.93
2022-11-29T10:35:41.370Z,37.63
2022-11-29T10:38:45.707Z,36.22
2022-11-29T10:41:51.732Z,37.22
2022-11-29T10:44:53.094Z,36.35
2022-11-29T10:48:02.614Z,36.47
2022-11-29T10:51:15.961Z,36.03
2022-11-29T10:54:47.860Z,36.00
2022-11-29T10:58:14.010Z,37.90
2022-11-29T11:01:16.577Z,36.55
2022-11-29T11:04:44.575Z,38.13
2022-11-29T11:07:56.902Z,36.53
2022-11-29T11:11:01.793Z,36.80
2022-11-29T11:14:22.849Z,35.97
2022-11-29T11:17:26.708Z,36.72
2022-11-29T11:20:36.294Z,37.00
2022-11-29T11:24:01.380Z,36.40
2022-11-29T11:27:02.892Z,35.03
2022-11-29T11:30:06.811Z,36.17
2022-11-29T11:33:28.252Z,34.92
2022-11-29T11:36:29.602Z,35.97
2022-11-29T11:39:31.276Z,36.05
2022-11-29T11:42:38.748Z,37.50
2022-11-29T11:45:40.108Z,35.05
2022-11-29T11:48:41.582Z,36.42
2022-11-29T11:51:43.790Z,35.83
2022-11-29T11:54:49.170Z,36.42
2022-11-29T11:58:10.297Z,36.17
2022-11-29T12:01:12.207Z,36.28
2022-11-29T12:04:30.550Z,36.70
2022-11-29T12:11:15.026Z,36.83
2022-11-29T12:14:42.631Z,34.10
2022-11-29T12:17:48.131Z,35.50
2022-11-29T12:20:58.322Z,35.40
2022-11-29T12:24:18.783Z,36.72
2022-11-29T12:27:20.186Z,37.55
2022-11-29T12:30:21.700Z,36.97
2022-11-29T12:33:56.459Z,36.63
2022-11-29T12:37:10.824Z,35.95
2022-11-29T12:40:45.723Z,34.45
2022-11-29T12:43:50.084Z,34.90
2022-11-29T12:47:34.561Z,35.70
2022-11-29T12:50:40.204Z,37.53
2022-11-29T12:54:06.292Z,35.88
2022-11-29T12:57:32.317Z,38.50
2022-11-29T13:00:44.861Z,37.67
2022-11-29T13:04:02.101Z,38.53
2022-11-29T13:07:41.287Z,35.72
2022-11-29T13:11:03.442Z,38.20
2022-11-29T13:14:40.945Z,37.20
2022-11-29T13:17:47.255Z,36.75
2022-11-29T13:21:06.845Z,38.70
2022-11-29T13:24:20.806Z,39.35
2022-11-29T13:27:28.367Z,39.22
2022-11-29T13:30:29.976Z,39.03
2022-11-29T13:33:42.327Z,40.90
2022-11-29T13:37:12.579Z,42.83
2022-11-29T13:40:25.848Z,45.65
2022-11-29T13:44:02.271Z,43.03
2022-11-29T13:47:13.539Z,44.88
2022-11-29T13:50:36.695Z,43.45
2022-11-29T13:53:48.506Z,41.60
2022-11-29T13:57:02.083Z,44.53
2022-11-29T14:00:04.383Z,40.57
2022-11-29T14:03:24.066Z,42.47
2022-11-29T14:06:34.750Z,40.00
2022-11-29T14:09:47.444Z,39.83
2022-11-29T14:12:56.571Z,39.77
2022-11-29T14:16:03.128Z,39.75
2022-11-29T14:19:06.671Z,38.47
2022-11-29T14:22:20.309Z,40.53
2022-11-29T14:28:44.403Z,38.95
2022-11-29T14:31:50.934Z,39.05
2022-11-29T14:35:03.716Z,41.28
2022-11-29T14:38:18.716Z,38.20
2022-11-29T14:41:26.098Z,39.17
2022-11-29T14:44:30.800Z,38.85
2022-11-29T14:47:37.508Z,39.45
2022-11-29T14:50:40.393Z,37.65
2022-11-29T14:53:43.406Z,40.17
2022-11-29T14:56:46.702Z,39.22
2022-11-29T15:03:00.331Z,40.57
2022-11-29T15:06:10.764Z,39.80
2022-11-29T15:09:19.923Z,36.90
2022-11-29T15:12:25.613Z,41.58
2022-11-29T15:15:37.194Z,40.28
2022-11-29T15:18:59.937Z,41.60
2022-11-29T15:22:12.313Z,40.38
2022-11-29T15:25:19.178Z,40.00
2022-11-29T15:28:26.688Z,39.17
2022-11-29T15:31:28.176Z,40.78
2022-11-29T15:34:33.489Z,40.08
2022-11-29T15:37:34.794Z,40.78
2022-11-29T15:40:36.137Z,39.80
2022-11-29T15:43:38.227Z,42.60
2022-11-29T15:46:39.559Z,38.70
2022-11-29T15:49:40.951Z,41.80
2022-11-29T15:52:42.494Z,41.53
2022-11-29T15:55:45.155Z,38.60
2022-11-29T15:58:47.927Z,39.53
2022-11-29T16:01:53.016Z,41.88
2022-11-29T16:05:01.055Z,41.92
2022-11-29T16:08:17.116Z,39.65
2022-11-29T16:11:22.926Z,40.28
2022-11-29T16:14:27.152Z,40.55
2022-11-29T16:17:34.148Z,39.72
2022-11-29T16:20:35.561Z,39.45
2022-11-29T16:23:39.274Z,38.70
2022-11-29T16:26:45.118Z,38.50
2022-11-29T16:29:47.877Z,38.55
2022-11-29T16:32:54.317Z,39.45
2022-11-29T16:36:15.909Z,39.20
2022-11-29T16:39:23.688Z,40.72
2022-11-29T16:42:27.814Z,41.47
2022-11-29T16:45:42.496Z,41.25
2022-11-29T16:48:43.929Z,40.65
2022-11-29T16:51:46.766Z,40.85
2022-11-29T16:54:48.595Z,39.47
2022-11-29T16:57:50.124Z,41.78
2022-11-29T17:00:51.518Z,40.35
2022-11-29T17:03:53.722Z,42.03
2022-11-29T17:06:56.197Z,40.97
2022-11-29T17:09:58.158Z,41.50
2022-11-29T17:12:59.535Z,41.53
2022-11-29T17:16:00.872Z,42.05
2022-11-29T17:19:02.195Z,38.20
2022-11-29T17:22:03.564Z,39.45
2022-11-29T17:25:05.372Z,39.95
2022-11-29T17:28:06.719Z,41.92
2022-11-29T17:31:15.603Z,40.55
2022-11-29T17:34:17.027Z,39.85
2022-11-29T17:37:18.429Z,39.75
2022-11-29T17:40:19.762Z,41.78
2022-11-29T17:43:21.104Z,41.60
2022-11-29T17:46:28.422Z,40.55
2022-11-29T17:49:29.791Z,40.78
2022-11-29T17:52:31.116Z,40.90
2022-11-29T17:55:32.458Z,40.75
2022-11-29T17:58:34.410Z,41.83
2022-11-29T18:01:36.384Z,41.00
2022-11-29T18:04:37.777Z,41.33
2022-11-29T18:07:39.153Z,41.03
2022-11-29T18:10:40.503Z,40.78
2022-11-29T18:13:42.178Z,39.30
2022-11-29T18:16:43.638Z,39.60
2022-11-29T18:19:45.155Z,41.33
2022-11-29T18:22:46.633Z,42.33
2022-11-29T18:25:59.289Z,42.17
2022-11-29T18:29:00.994Z,41.40
2022-11-29T18:32:02.355Z,41.92
2022-11-29T18:35:04.107Z,40.90
2022-11-29T18:38:20.685Z,44.10
2022-11-29T18:41:23.399Z,41.80
2022-11-29T18:44:24.816Z,42.80
2022-11-29T18:47:26.155Z,43.63
2022-11-29T18:50:27.491Z,43.50
2022-11-29T18:53:28.852Z,43.17
2022-11-29T18:56:32.864Z,43.55
2022-11-29T18:59:34.220Z,43.45
2022-11-29T19:02:35.635Z,42.90
2022-11-29T19:05:37.060Z,44.03
2022-11-29T19:08:38.719Z,47.00
2022-11-29T19:11:40.391Z,42.97
2022-11-29T19:14:46.525Z,45.05
2022-11-29T19:17:50.889Z,41.35
2022-11-29T19:20:52.286Z,44.88
2022-11-29T19:23:59.298Z,43.83
2022-11-29T19:27:00.661Z,43.35
2022-11-29T19:30:02.837Z,43.50
2022-11-29T19:33:04.300Z,45.15
2022-11-29T19:36:11.269Z,42.92
2022-11-29T19:39:14.961Z,45.92
2022-11-29T19:42:16.317Z,43.58
2022-11-29T19:45:18.373Z,44.60
2022-11-29T19:48:19.905Z,43.08
2022-11-29T19:51:22.316Z,47.03
2022-11-29T19:54:23.675Z,44.92
2022-11-29T19:57:25.037Z,44.72
2022-11-29T20:00:26.386Z,48.35
2022-11-29T20:03:29.626Z,48.13
2022-11-29T20:06:31.270Z,45.70
2022-11-29T20:09:33.031Z,44.33
2022-11-29T20:12:34.452Z,46.63
2022-11-29T20:15:35.825Z,44.60
2022-11-29T20:18:40.188Z,44.40
2022-11-29T20:21:44.244Z,43.83
2022-11-29T20:24:45.885Z,46.05
2022-11-29T20:27:47.250Z,44.67
2022-11-29T20:30:48.627Z,45.38
2022-11-29T20:33:52.601Z,42.53
2022-11-29T20:37:12.359Z,42.30
2022-11-29T20:40:26.077Z,45.38
2022-11-29T20:43:50.199Z,43.97
2022-11-29T20:46:51.724Z,43.45
2022-11-29T20:49:53.773Z,43.53
2022-11-29T20:53:24.605Z,45.22
2022-11-29T20:56:26.005Z,41.60
2022-11-29T21:02:30.712Z,42.67
2022-11-29T21:05:32.153Z,45.47
2022-11-29T21:08:34.097Z,40.20
2022-11-29T21:11:35.829Z,39.50
2022-11-29T21:14:37.442Z,41.13
2022-11-29T21:17:39.525Z,40.03
2022-11-29T21:20:42.067Z,41.28
2022-11-29T21:23:49.546Z,41.07
2022-11-29T21:26:51.961Z,42.42
2022-11-29T21:29:53.821Z,41.92
2022-11-29T21:32:55.467Z,42.78
2022-11-29T21:35:57.736Z,42.08
2022-11-29T21:39:03.629Z,41.55
2022-11-29T21:42:06.531Z,43.72
2022-11-29T21:45:14.872Z,43.08
2022-11-29T21:48:17.078Z,41.67
2022-11-29T21:51:19.171Z,41.03
2022-11-29T21:54:20.546Z,43.03
2022-11-29T21:57:21.892Z,41.88
2022-11-29T22:00:23.512Z,41.35
2022-11-29T22:03:24.851Z,41.88
2022-11-29T22:06:26.336Z,41.15
2022-11-29T22:09:27.723Z,42.38
2022-11-29T22:12:36.223Z,41.00
2022-11-29T22:15:37.579Z,42.10
2022-11-29T22:18:38.921Z,39.38
2022-11-29T22:21:41.581Z,38.55
2022-11-29T22:24:42.923Z,43.17
2022-11-29T22:27:44.252Z,39.92
2022-11-29T22:30:45.585Z,39.88
2022-11-29T22:33:46.933Z,39.25
2022-11-29T22:36:48.421Z,41.05
2022-11-29T22:39:49.737Z,40.17
2022-11-29T22:42:51.923Z,41.97
2022-11-29T22:45:53.253Z,42.65
2022-11-29T22:48:56.340Z,39.60
2022-11-29T22:51:57.689Z,41.55
2022-11-29T22:55:04.482Z,41.20
2022-11-29T22:58:06.465Z,40.38
2022-11-29T23:01:13.353Z,43.55
2022-11-29T23:04:14.754Z,41.55
2022-11-29T23:07:16.084Z,43.33
2022-11-29T23:10:17.432Z,44.67
2022-11-29T23:13:18.759Z,44.20
2022-11-29T23:16:22.684Z,41.22
2022-11-29T23:19:24.051Z,42.33
2022-11-29T23:22:25.406Z,42.53
2022-11-29T23:25:26.731Z,42.10
2022-11-29T23:28:28.805Z,43.70
2022-11-29T23:31:30.174Z,40.90
2022-11-29T23:34:31.531Z,43.08
2022-11-29T23:37:32.859Z,41.08
2022-11-29T23:40:34.502Z,40.88
2022-11-29T23:43:37.840Z,40.00
2022-11-29T23:49:40.464Z,40.55
2022-11-29T23:52:41.797Z,43.35
2022-11-29T23:55:43.222Z,42.00
2022-11-29T23:58:45.108Z,41.92
